• Join FlightAware (Why Join?)
  • Login
  • US Flag 
07:55AM EST


 

Airport Tracker/Info


-or-


 

Live Flight TrackerFlight Track Log ✈ TAM3442 ✈ 16-Sep-2013 ✈ SBGR / GRU - SBCF / CNF

Flight Track Log - Related Links

Times and Time Zones

All times are in EDT time to prevent confusion due to time zone crossing. See the TAM3442 flight status page for this flight to view local times or setup timezone preferences in your user account.

Time Position Orientation Groundspeed Altitude Reporting Facility
EDT Latitude Longitude Course Direction KTS MPH feet Rate Location/Type
10:08PM -23.4350 -46.4860 256° West 172 198 3,000  Level FlightAware
10:08PM -23.4420 -46.5160 256° West 206 237 3,700 2,000 Climbing FlightAware
10:08PM -23.4480 -46.5370 253° West 216 249 4,400 2,368 Climbing FlightAware
10:09PM -23.4530 -46.5550 253° West 213 245 5,200 2,276 Climbing FlightAware
10:09PM -23.4600 -46.5640 230° Southwest 219 252 5,500 1,800 Climbing FlightAware
10:09PM -23.4690 -46.5700 211° Southwest 228 262 5,800 1,765 Climbing FlightAware
10:09PM -23.4770 -46.5720 193° South 234 269 6,000 1,667 Climbing FlightAware
10:09PM -23.5040 -46.5590 156° South 242 278 6,800 1,500 Climbing FlightAware
10:10PM -23.5060 -46.5550 119° Southeast 245 282 6,800 1,000 Level FlightAware
10:10PM -23.5100 -46.5450 114° Southeast 252 290 7,000 750 Climbing FlightAware
10:10PM -23.5120 -46.5340 101° East 264 304 7,000 750 Level FlightAware
10:10PM -23.5130 -46.5240 96° East 273 314 7,200 923 Climbing FlightAware
10:10PM -23.5130 -46.4970 90° East 299 344 7,400 1,071 Climbing FlightAware
10:10PM -23.5170 -46.4840 109° East 313 360 7,700 1,333 Climbing FlightAware
10:11PM -23.5220 -46.4720 114° Southeast 319 367 7,800 429 Climbing FlightAware
10:11PM -23.5480 -46.4240 121° Southeast 318 366 8,000 222 Climbing FlightAware
10:11PM -23.5620 -46.3960 119° Southeast 311 358 8,000 429 Level FlightAware
10:12PM -23.5640 -46.3840 100° East 306 352 8,200 1,929 Climbing FlightAware
10:12PM -23.5660 -46.3530 94° East 308 354 8,900 2,100 Climbing FlightAware
10:12PM -23.5670 -46.3220 92° East 322 371 9,600 1,500 Climbing FlightAware
10:13PM -23.5680 -46.2830 92° East 320 368 10,000 750 Climbing FlightAware
10:13PM -23.5600 -46.2200 82° East 320 368 10,400 875 Climbing FlightAware
10:13PM -23.5530 -46.2100 53° Northeast 315 362 10,700 2,333 Climbing FlightAware
10:14PM -23.5420 -46.2010 37° Northeast 306 352 11,100 2,400 Climbing FlightAware
10:14PM -23.5310 -46.1950 27° Northeast 298 343 11,500 2,609 Climbing FlightAware
10:14PM -23.4840 -46.1800 16° North 297 342 13,100 2,438 Climbing FlightAware
10:15PM -23.4430 -46.1710 11° North 297 342 14,100 1,929 Climbing FlightAware
10:15PM -23.4030 -46.1720 359° North 311 358 14,900 1,200 Climbing FlightAware
10:16PM -23.3730 -46.1650 12° North 353 406 15,100 545 Climbing FlightAware
10:16PM -23.3600 -46.1570 29° Northeast 370 426 15,200 1,364 Climbing FlightAware
10:16PM -23.3120 -46.1120 41° Northeast 388 447 16,100 2,118 Climbing FlightAware
10:17PM -23.2630 -46.0650 41° Northeast 385 443 17,600 2,057 Climbing FlightAware
10:18PM -23.2150 -46.0200 41° Northeast 402 463 18,500 1,606 Climbing FlightAware
10:18PM -23.1640 -45.9720 41° Northeast 404 465 19,500 2,057 Climbing FlightAware
10:19PM -23.1150 -45.9260 41° Northeast 406 467 20,900 2,500 Climbing FlightAware
10:19PM -23.0780 -45.8940 39° Northeast 388 447 22,000 1,600 Climbing FlightAware
10:19PM -23.0460 -45.8780 25° Northeast 398 458 22,100 500 Climbing FlightAware
10:20PM -22.9730 -45.8490 20° North 418 481 22,500 880 Climbing FlightAware
10:21PM -22.9080 -45.8210 22° Northeast 431 496 23,200 1,391 Climbing FlightAware
10:21PM -22.8420 -45.7940 21° North 434 499 24,100 1,352 Climbing FlightAware
10:22PM -22.7720 -45.7650 21° North 449 517 24,800 1,268 Climbing FlightAware
10:22PM -22.7030 -45.7360 21° North 446 513 25,600 1,286 Climbing FlightAware
10:23PM -22.6360 -45.7080 21° North 451 519 26,300 1,200 Climbing FlightAware
10:24PM -22.5610 -45.6760 22° Northeast 462 532 27,100 1,342 Climbing FlightAware
10:24PM -22.4830 -45.6440 21° North 462 532 28,000 1,606 Climbing FlightAware
10:25PM -22.4180 -45.6170 21° North 450 518 29,000 1,800 Climbing FlightAware
10:26PM -22.3460 -45.5860 22° Northeast 447 514 30,100 1,714 Climbing FlightAware
10:26PM -22.2780 -45.5580 21° North 447 514 31,000 1,360 Climbing FlightAware
10:27PM -22.2020 -45.5170 27° Northeast 447 514 31,800 1,114 Climbing FlightAware
10:27PM -22.1480 -45.4830 30° Northeast 452 520 32,300 1,015 Climbing FlightAware
10:28PM -22.0840 -45.4420 31° Northeast 452 520 32,900 600 Climbing FlightAware
10:28PM -22.0260 -45.4060 30° Northeast 456 525 33,000 86 Climbing FlightAware
10:29PM -21.9720 -45.3720 30° Northeast 456 525 33,000  Level FlightAware
10:30PM -21.8990 -45.3260 30° Northeast 456 525 33,000  Level FlightAware
10:30PM -21.8330 -45.2850 30° Northeast 455 524 33,000  Level FlightAware
10:31PM -21.7780 -45.2510 30° Northeast 456 525 33,000  Level FlightAware
10:32PM -21.6990 -45.2010 30° Northeast 454 522 33,000  Level FlightAware
10:32PM -21.6430 -45.1660 30° Northeast 454 522 33,000  Level FlightAware
10:33PM -21.5800 -45.1270 30° Northeast 454 522 33,000  Level FlightAware
10:33PM -21.5300 -45.0960 30° Northeast 453 521 33,000  Level FlightAware
10:34PM -21.4290 -45.0320 31° Northeast 468 539 33,000  Level FlightAware
10:34PM -21.3620 -44.9910 30° Northeast 485 558 33,000  Level FlightAware
10:35PM -21.2900 -44.9460 30° Northeast 493 567 33,000 -160 Level FlightAware
10:36PM -21.2130 -44.8980 30° Northeast 489 563 32,800 -800 Descending FlightAware
10:36PM -21.1410 -44.8540 30° Northeast 491 565 32,000 -1,714 Descending FlightAware
10:37PM -21.0730 -44.8110 31° Northeast 490 564 30,800 -2,143 Descending FlightAware
10:37PM -21.0060 -44.7740 27° Northeast 479 551 29,500 -2,314 Descending FlightAware
10:38PM -20.9350 -44.7440 22° Northeast 467 537 28,100 -2,314 Descending FlightAware
10:39PM -20.8630 -44.7140 21° North 475 547 26,800 -2,143 Descending FlightAware
10:39PM -20.7950 -44.6840 22° Northeast 475 547 25,600 -2,743 Descending FlightAware
10:40PM -20.7160 -44.6510 21° North 478 550 23,600 -2,400 Descending FlightAware
10:40PM -20.6440 -44.6200 22° Northeast 481 554 22,800 -1,800 Descending FlightAware
10:41PM -20.5730 -44.5900 22° Northeast 468 539 21,500 -2,314 Descending FlightAware
10:42PM -20.5030 -44.5600 22° Northeast 471 542 20,100 -1,800 Descending FlightAware
10:42PM -20.4310 -44.5320 20° North 460 529 19,400 -1,543 Descending FlightAware
10:43PM -20.3610 -44.5050 20° North 447 514 18,300 -1,886 Descending FlightAware
10:43PM -20.2930 -44.4780 20° North 444 511 17,200 -1,800 Descending FlightAware
10:44PM -20.2270 -44.4520 20° North 445 512 16,200 -2,057 Descending FlightAware
10:44PM -20.1600 -44.4250 21° North 433 498 14,800 -2,486 Descending FlightAware
10:45PM -20.0950 -44.4000 20° North 421 484 13,300 -2,571 Descending FlightAware
10:46PM -20.0330 -44.3750 21° North 411 473 11,800 -1,971 Descending FlightAware
10:46PM -19.9710 -44.3510 20° North 395 455 11,000 -943 Descending FlightAware
10:47PM -19.9140 -44.3280 21° North 355 409 10,700 -600 Descending FlightAware
10:47PM -19.8610 -44.3080 20° North 328 377 10,300 -750 Descending FlightAware
10:48PM -19.8210 -44.2920 21° North 300 345 9,900 -960 Descending FlightAware
10:48PM -19.7970 -44.2820 21° North 296 341 9,500 -1,171 Descending FlightAware
10:49PM -19.7690 -44.2710 20° North 295 339 9,100 -1,350 Descending FlightAware
10:49PM -19.7430 -44.2610 20° North 293 337 8,600 -1,600 Descending FlightAware
10:49PM -19.7320 -44.2560 23° Northeast 295 339 8,300 -1,862 Descending FlightAware
10:49PM -19.7090 -44.2400 33° Northeast 295 339 7,700 -1,650 Descending FlightAware
10:50PM -19.6870 -44.2240 34° Northeast 293 337 7,200 -1,317 Descending FlightAware
10:50PM -19.6620 -44.2070 33° Northeast 287 330 6,800 -1,333 Descending FlightAware
10:50PM -19.6350 -44.1890 32° Northeast 281 323 6,200 -1,467 Descending FlightAware
10:51PM -19.6150 -44.1750 33° Northeast 275 316 5,700 -1,231 Descending FlightAware
10:51PM -19.5920 -44.1600 32° Northeast 265 305 5,400 -750 Descending FlightAware
10:51PM -19.5720 -44.1460 33° Northeast 251 289 5,200 -652 Descending FlightAware
10:52PM -19.5480 -44.1290 34° Northeast 236 272 4,900 -383 Descending FlightAware
10:52PM -19.5290 -44.1160 33° Northeast 213 245 4,900 162 Level FlightAware
10:52PM -19.5180 -44.1080 34° Northeast 198 228 5,000 300 Climbing FlightAware
10:53PM -19.5160 -44.1040 62° Northeast 193 222 5,000  Level FlightAware
10:53PM -19.5140 -44.0950 77° East 186 214 5,000 -200 Level FlightAware
10:53PM -19.5180 -44.0800 106° East 187 215 4,900 -200 Descending FlightAware
10:53PM -19.5240 -44.0710 125° Southeast 173 199 4,900 -200 Level FlightAware
10:54PM -19.5360 -44.0590 137° Southeast 165 190 4,800 -450 Descending FlightAware
10:54PM -19.5470 -44.0490 139° Southeast 159 183 4,600 -800 Descending FlightAware
10:54PM -19.5520 -44.0440 137° Southeast 156 180 4,400 -706 Descending FlightAware
10:54PM -19.5630 -44.0340 139° Southeast 155 178 4,200 -778 Descending FlightAware
10:55PM -19.5800 -44.0180 138° Southeast 153 176 3,700 -889 Descending FlightAware
10:55PM -19.5940 -44.0050 139° Southeast 147 169 3,400 -698 Descending FlightAware
10:56PM -19.6040 -43.9970 143° Southeast 148 170 3,200 -667 Descending FlightAware
10:56PM -19.6130 -43.9880 137° Southeast 148 170 3,000 -857 Descending FlightAware
10:56PM -19.6220 -43.9800 140° Southeast 149 171 2,700 -1,000 Descending FlightAware